Fargo, ND

02:50 AM CDT del 30 Agosto 2015 (GMT -0500)
Hector International | | Change Station
CLOSE
Current Station
Aeroporto
Location: Fargo,
Altitudine: 899 ft
Stazioni meteo nelle vicinanze

Alt. 899 ft 46.91 °N, 96.81 °W | Updated 57 minutes ago

Clear
Sereno
68 °F
Sembra 68 °F
N
12
Vento Variabile Vento da SSE

Oggi
Massima -- | Minima -- °F
--% Possibilità di precip.
Ieri
Massima -- | Minima -- °F
Precip. -- in
6:43 AM 8:11 PM
Luna piena, 100% visible
Pressione 29.83 in
Visibilità 10.0 miglia
Nuvole Sereno
Punto di rugiada 64 °F
Umidità 87%
Piovosità 0.00 in
Spessore del manto nevoso Non disponibile.
Raggi UV 0 fuori da 12
Polline 10.70 fuori da 12
Qualità dell'aria Non disponibile.
Flu Activity Non disponibile.
METAR KFAR 300653Z AUTO 16010KT 10SM CLR 20/18 A2984 RMK AO2 SLP102 T02000178 TSNO
Pressione 29.83 in
Visibilità 10.0 miglia
Nuvole Sereno
Punto di rugiada 64 °F
Umidità 87%
Piovosità 0.00 in
Spessore del manto nevoso Non disponibile.
Raggi UV 0 fuori da 12
Polline 10.70 fuori da 12
Qualità dell'aria Non disponibile.
Flu Activity Non disponibile.
METAR KFAR 300653Z AUTO 16010KT 10SM CLR 20/18 A2984 RMK AO2 SLP102 T02000178 TSNO

10-Day Weather Forecast

×

Almanac

Astronomia

Aug. 30, 2015 Alba Tramonto
Ora attuale
Crepuscolo civile
Crepuscolo nautico
Crepuscolo astronomico
Luna
Estensione della luce visibile
Lunghezza del giorno
Tomorrow will be .
, % of the Moon is Illuminated

Gli estremi di oggi

State Highs State Lows

Community

WunderPhotos

Upload Photos

1,850,904 foto caricate!

WunderBlogs® & News

Nearby

Qualità dell'aria

  Qualità dell'aria Indice AQ Inquinante
Not available.

Profondità neve

Stazione Profondità Altitudine

Attività sismica

Città  Distanza Mag. Data & Ora
Minimo Magnitudo Mostrato è 2.5.

Temperature delle acque costiere

Località Temperatura

Stations

Stazioni meteo nelle vicinanze

Ubicazione della stazione Temp. Raffreddamento del vento Punto di rugiada Umidità Vento Precip. Alt. Aggiornato Tipo